Time;durP1;ratioP1;P1;durP2;ratioP2;P2;SDS_P1;SDS_P2;PMS_P1;PMS_P2;Temp;Humidity;BMP_temperature;BMP_pressure;BME280_temperature;BME280_humidity;BME280_pressure;Samples;Min_cycle;Max_cycle;Signal;HPM_P1;HPM_P2
2021/06/05 00:02:27;;;;;;;7.47;1.88;;;;;;;21.00;61.39;101535.47;5028463;28;20100;-64
2021/06/05 00:04:57;;;;;;;6.45;1.50;;;;;;;20.97;61.04;101529.28;5028271;28;20069;-65
2021/06/05 00:07:24;;;;;;;9.10;2.03;;;;;;;20.95;61.30;101521.25;5028450;28;20088;-64
2021/06/05 00:09:51;;;;;;;6.50;2.00;;;;;;;20.92;61.14;101525.78;5028969;28;20029;-65
2021/06/05 00:12:23;;;;;;;5.50;1.90;;;;;;;20.90;61.11;101523.13;5028976;28;20037;-64
2021/06/05 00:14:50;;;;;;;9.05;1.98;;;;;;;20.88;60.77;101518.66;5028827;28;20034;-65
2021/06/05 00:17:18;;;;;;;7.40;1.67;;;;;;;20.86;60.90;101515.13;5031488;28;20137;-66
2021/06/05 00:19:45;;;;;;;12.13;2.17;;;;;;;20.87;60.77;101507.03;5031370;28;20405;-64
2021/06/05 00:22:13;;;;;;;4.68;1.92;;;;;;;20.88;60.77;101518.66;5029561;28;20552;-65
2021/06/05 00:24:41;;;;;;;7.35;2.03;;;;;;;20.82;60.77;101508.91;5031720;28;20041;-65
2021/06/05 00:27:08;;;;;;;11.57;2.10;;;;;;;20.82;61.08;101511.59;5030661;28;20124;-65
2021/06/05 00:29:37;;;;;;;8.77;2.20;;;;;;;20.82;61.05;101519.66;5031763;28;20045;-65
2021/06/05 00:32:05;;;;;;;9.38;1.98;;;;;;;20.80;60.91;101501.81;5031615;28;20088;-64
2021/06/05 00:34:32;;;;;;;9.85;1.98;;;;;;;20.82;61.03;101494.59;5030673;28;20048;-64
2021/06/05 00:37:00;;;;;;;9.18;2.38;;;;;;;20.82;61.20;101511.59;5031222;28;20520;-64
2021/06/05 00:39:26;;;;;;;5.18;1.77;;;;;;;20.80;61.14;101502.69;5030783;28;20064;-65
2021/06/05 00:41:53;;;;;;;8.43;2.40;;;;;;;20.80;61.05;101501.81;5031473;28;20518;-64
2021/06/05 00:44:20;;;;;;;9.50;2.55;;;;;;;20.81;60.74;101496.41;5031534;28;20112;-64
2021/06/05 00:46:49;;;;;;;5.13;1.90;;;;;;;20.79;60.80;101498.22;5011815;28;20034;-64
2021/06/05 00:49:16;;;;;;;8.30;2.33;;;;;;;20.76;60.92;101486.63;5010993;28;20058;-65
2021/06/05 00:51:45;;;;;;;5.05;1.98;;;;;;;20.77;60.78;101496.47;5010979;28;20473;-64
2021/06/05 00:54:15;;;;;;;6.78;1.80;;;;;;;20.76;60.40;101482.16;5011653;28;20069;-65
2021/06/05 00:56:45;;;;;;;9.50;2.38;;;;;;;20.77;60.73;101473.22;5011654;28;20053;-65
2021/06/05 00:59:12;;;;;;;7.13;1.88;;;;;;;20.76;60.40;101486.63;5009714;28;20050;-64
2021/06/05 01:01:40;;;;;;;9.73;1.98;;;;;;;20.76;60.25;101478.59;5011288;28;20483;-64
2021/06/05 01:04:10;;;;;;;17.95;2.72;;;;;;;20.73;60.50;101475.97;5011630;28;20057;-65
2021/06/05 01:06:42;;;;;;;8.93;2.25;;;;;;;20.72;60.24;101477.75;5010526;28;20386;-64
2021/06/05 01:09:14;;;;;;;10.45;2.03;;;;;;;20.69;60.14;101478.69;5011189;28;20042;-64
2021/06/05 01:11:50;;;;;;;5.93;1.95;;;;;;;20.66;60.08;101478.75;5011533;28;20056;-65
2021/06/05 01:14:25;;;;;;;6.28;2.33;;;;;;;20.65;60.14;101460.84;5010832;28;20038;-65
2021/06/05 01:16:56;;;;;;;8.48;2.30;;;;;;;20.62;60.46;101468.06;5030585;28;20041;-64
2021/06/05 01:19:40;;;;;;;6.25;2.20;;;;;;;20.63;60.34;101476.09;5030707;28;20397;-64
2021/06/05 01:22:20;;;;;;;6.75;2.63;;;;;;;20.61;60.46;101477.03;5030245;28;20072;-64
2021/06/05 01:25:14;;;;;;;9.25;2.75;;;;;;;20.58;60.14;101487.81;5030804;28;20511;-65
2021/06/05 01:27:46;;;;;;;4.32;2.03;;;;;;;20.53;60.59;101482.50;5010680;28;20050;-65
2021/06/05 01:30:18;;;;;;;6.57;2.22;;;;;;;20.53;60.52;101478.94;5010832;28;20123;-65
2021/06/05 01:32:46;;;;;;;8.63;2.40;;;;;;;20.54;60.87;101489.66;5011026;28;20543;-64
2021/06/05 01:35:16;;;;;;;12.05;2.30;;;;;;;20.54;61.39;101486.97;5010311;28;20077;-64
2021/06/05 01:37:44;;;;;;;7.90;2.20;;;;;;;20.55;61.15;101494.06;5011131;28;20125;-65
2021/06/05 01:40:13;;;;;;;7.80;2.80;;;;;;;20.56;61.54;101477.06;5010337;28;20042;-64
2021/06/05 01:42:45;;;;;;;10.23;2.80;;;;;;;20.56;61.81;101487.81;5010044;28;20104;-64
2021/06/05 01:45:16;;;;;;;9.77;2.30;;;;;;;20.57;62.24;101491.38;5010470;28;20116;-64
2021/06/05 01:47:44;;;;;;;10.27;2.75;;;;;;;20.55;62.63;101482.47;5010679;28;20045;-64
2021/06/05 01:50:15;;;;;;;7.85;2.50;;;;;;;20.55;63.21;101480.66;5010038;28;20716;-64
2021/06/05 01:52:44;;;;;;;9.98;2.15;;;;;;;20.54;63.10;101480.72;5010630;28;20541;-64
2021/06/05 01:55:14;;;;;;;9.98;2.78;;;;;;;20.50;63.49;101477.16;5009339;28;20128;-65
2021/06/05 01:57:47;;;;;;;8.90;2.38;;;;;;;20.50;63.61;101463.75;5010445;28;20128;-64
2021/06/05 02:00:18;;;;;;;9.07;2.70;;;;;;;20.49;63.63;101461.97;5010450;28;20091;-64
2021/06/05 02:02:45;;;;;;;6.72;2.42;;;;;;;20.42;63.91;101465.66;5008824;28;20137;-65
2021/06/05 02:05:12;;;;;;;9.23;2.72;;;;;;;20.40;64.09;101466.59;5010271;28;20053;-64
2021/06/05 02:07:39;;;;;;;7.40;2.42;;;;;;;20.36;63.98;101460.38;5010391;28;20041;-64
2021/06/05 02:10:10;;;;;;;8.10;2.30;;;;;;;20.39;63.92;101470.19;5009354;28;20064;-64
2021/06/05 02:12:40;;;;;;;9.95;2.45;;;;;;;20.35;64.05;101473.81;5010270;28;20096;-64
2021/06/05 02:15:12;;;;;;;8.27;2.10;;;;;;;20.34;64.15;101478.28;5009680;28;20092;-66
2021/06/05 02:17:41;;;;;;;7.20;2.53;;;;;;;20.32;64.31;101474.69;5009843;28;20406;-64
2021/06/05 02:20:13;;;;;;;8.38;2.72;;;;;;;20.32;64.16;101476.50;5009638;28;20061;-65
2021/06/05 02:22:43;;;;;;;7.75;2.63;;;;;;;20.27;64.43;101482.81;5009434;28;20561;-64
2021/06/05 02:25:14;;;;;;;6.40;2.50;;;;;;;20.26;64.41;101489.09;5009301;28;20038;-65
2021/06/05 02:27:42;;;;;;;7.78;2.80;;;;;;;20.23;64.66;101488.22;5010170;28;20674;-64
2021/06/05 02:30:16;;;;;;;7.55;3.00;;;;;;;20.25;64.65;101486.41;5009450;28;20422;-64
2021/06/05 02:32:43;;;;;;;11.13;2.65;;;;;;;20.21;64.70;101488.25;5010122;28;20042;-64
2021/06/05 02:35:15;;;;;;;7.40;2.80;;;;;;;20.19;64.91;101483.81;5008865;28;20048;-64
2021/06/05 02:37:42;;;;;;;8.88;2.72;;;;;;;20.21;64.59;101484.69;5008924;28;20038;-65
2021/06/05 02:40:13;;;;;;;7.68;2.67;;;;;;;20.22;64.46;101490.00;5009316;28;20046;-64
2021/06/05 02:42:42;;;;;;;7.95;3.00;;;;;;;20.17;64.28;101480.25;5009800;28;20581;-65
2021/06/05 02:45:16;;;;;;;7.28;2.97;;;;;;;20.19;64.20;101490.06;5009633;28;20548;-64
2021/06/05 02:47:52;;;;;;;9.98;2.70;;;;;;;20.22;63.75;101481.97;5009555;28;20180;-64
2021/06/05 02:50:20;;;;;;;8.15;2.92;;;;;;;20.21;63.81;101482.00;5028817;28;20061;-66
2021/06/05 02:52:47;;;;;;;7.25;2.58;;;;;;;20.22;63.73;101473.03;5027794;28;20516;-64
2021/06/05 02:55:16;;;;;;;13.25;2.95;;;;;;;20.23;63.77;101481.06;5029307;28;20497;-64
2021/06/05 02:57:43;;;;;;;16.23;2.95;;;;;;;20.20;63.89;101475.75;5028733;28;20768;-64
2021/06/05 03:00:15;;;;;;;5.20;2.38;;;;;;;20.21;63.67;101490.94;5028736;28;20069;-64
2021/06/05 03:02:43;;;;;;;10.75;3.03;;;;;;;20.18;64.13;101477.56;5029013;28;20497;-64
2021/06/05 03:05:11;;;;;;;8.43;2.60;;;;;;;20.17;64.44;101485.63;5029137;28;20091;-65
2021/06/05 03:07:38;;;;;;;13.88;2.88;;;;;;;20.16;64.96;101490.09;5028600;28;20040;-64
2021/06/05 03:10:06;;;;;;;4.03;2.58;;;;;;;20.18;64.69;101490.06;5028859;28;20041;-65
2021/06/05 03:12:34;;;;;;;5.85;2.30;;;;;;;20.19;64.93;101490.06;5028495;28;20044;-64
2021/06/05 03:15:02;;;;;;;10.00;3.13;;;;;;;20.21;64.82;101499.00;5028543;28;20045;-65
2021/06/05 03:17:31;;;;;;;7.20;2.42;;;;;;;20.25;64.81;101495.34;5029069;28;20040;-65
2021/06/05 03:19:58;;;;;;;10.30;2.45;;;;;;;20.35;64.66;101495.28;5028583;28;20117;-64
2021/06/05 03:22:25;;;;;;;9.07;3.40;;;;;;;20.46;64.38;101510.31;5028133;28;20076;-64
2021/06/05 03:24:52;;;;;;;8.70;2.90;;;;;;;20.58;64.07;101506.59;5028985;28;20071;-65
2021/06/05 03:27:19;;;;;;;7.50;2.65;;;;;;;20.72;63.58;101503.72;5008757;28;20045;-65
2021/06/05 03:29:46;;;;;;;12.45;2.55;;;;;;;20.82;63.35;101505.34;5008791;28;20406;-64
2021/06/05 03:32:13;;;;;;;8.35;3.10;;;;;;;20.94;63.06;101515.88;5008601;28;20057;-65
2021/06/05 03:34:42;;;;;;;8.52;2.92;;;;;;;21.06;63.00;101495.13;5007639;28;20045;-65
2021/06/05 03:37:10;;;;;;;10.55;2.72;;;;;;;21.16;62.97;101509.31;5009319;28;20035;-65
2021/06/05 03:39:37;;;;;;;10.20;2.55;;;;;;;21.24;62.78;101507.41;5008961;28;20038;-64
2021/06/05 03:42:05;;;;;;;8.50;2.20;;;;;;;21.37;62.38;101498.22;5008955;28;20038;-65
2021/06/05 03:44:33;;;;;;;9.05;2.95;;;;;;;21.46;62.79;101514.16;5008987;28;20045;-65
2021/06/05 03:47:00;;;;;;;12.10;2.92;;;;;;;21.58;62.55;101501.47;5008860;28;20552;-65
2021/06/05 03:49:27;;;;;;;9.68;2.85;;;;;;;21.69;62.34;101512.91;5010177;28;20069;-65
2021/06/05 03:51:56;;;;;;;6.50;2.13;;;;;;;21.81;61.84;101510.88;5012351;28;20049;-65
2021/06/05 03:54:23;;;;;;;6.80;2.40;;;;;;;21.93;62.07;101512.44;5012354;28;20065;-64
2021/06/05 03:56:50;;;;;;;5.18;2.13;;;;;;;22.04;61.77;101507.78;5032079;28;20148;-65
2021/06/05 03:59:17;;;;;;;7.25;2.63;;;;;;;22.18;61.31;101496.75;5032498;28;20030;-64
2021/06/05 04:01:44;;;;;;;6.50;2.25;;;;;;;22.35;60.82;101501.78;5031374;28;20139;-64
2021/06/05 04:04:11;;;;;;;7.07;2.00;;;;;;;22.48;60.10;101514.03;5032122;28;20120;-65
2021/06/05 04:06:38;;;;;;;7.28;2.65;;;;;;;22.60;59.93;101513.78;5032227;28;20116;-64
2021/06/05 04:09:07;;;;;;;7.95;2.50;;;;;;;22.74;59.51;101517.09;5031798;28;20092;-65
2021/06/05 04:11:34;;;;;;;7.82;2.83;;;;;;;22.86;59.16;101505.13;5031931;28;20041;-65
2021/06/05 04:14:02;;;;;;;7.70;2.50;;;;;;;23.00;59.14;101521.88;5032197;28;20041;-64
2021/06/05 04:16:29;;;;;;;8.85;2.28;;;;;;;23.14;58.54;101521.53;5031971;28;20033;-65
2021/06/05 04:18:56;;;;;;;10.85;2.53;;;;;;;23.29;57.98;101522.06;5031976;28;20057;-65
2021/06/05 04:21:27;;;;;;;8.27;2.10;;;;;;;23.48;58.06;101527.91;5032531;28;20041;-65
2021/06/05 04:23:55;;;;;;;7.28;2.20;;;;;;;23.64;57.18;101520.28;5031041;28;20041;-65
2021/06/05 04:26:25;;;;;;;8.05;2.03;;;;;;;23.80;56.74;101537.84;5032125;28;20041;-65
2021/06/05 04:28:53;;;;;;;5.38;1.80;;;;;;;23.93;56.34;101535.72;5031808;28;20766;-65
2021/06/05 04:31:20;;;;;;;7.88;1.80;;;;;;;24.13;55.66;101533.34;5031799;28;20119;-65
2021/06/05 04:33:47;;;;;;;10.70;2.05;;;;;;;24.26;54.53;101544.72;5031301;28;20038;-64
2021/06/05 04:36:16;;;;;;;4.72;1.88;;;;;;;24.43;54.28;101543.28;5030993;28;20049;-65
2021/06/05 04:38:44;;;;;;;9.02;2.10;;;;;;;24.63;54.14;101538.19;5031842;28;20038;-65
2021/06/05 04:41:14;;;;;;;6.22;1.95;;;;;;;24.83;53.47;101545.69;5031507;28;20044;-65
2021/06/05 04:43:42;;;;;;;8.32;2.10;;;;;;;25.08;53.00;101543.13;5030749;28;20758;-65
2021/06/05 04:46:12;;;;;;;8.45;2.08;;;;;;;25.28;52.44;101537.97;5031528;28;20202;-65
2021/06/05 04:48:39;;;;;;;6.50;1.77;;;;;;;25.49;52.15;101541.78;5031272;28;20503;-66
2021/06/05 04:51:07;;;;;;;10.07;1.75;;;;;;;25.73;51.66;101553.66;5030970;28;20559;-65
2021/06/05 04:53:35;;;;;;;7.63;2.03;;;;;;;25.92;51.37;101551.19;5027372;28;20412;-65
2021/06/05 04:56:03;;;;;;;8.85;2.10;;;;;;;26.19;50.54;101547.44;5031497;28;20050;-65
2021/06/05 04:58:30;;;;;;;6.75;1.73;;;;;;;26.44;50.17;101550.19;5030649;28;20087;-65
2021/06/05 05:00:59;;;;;;;10.07;2.47;;;;;;;26.62;49.14;101554.91;5030451;28;20049;-65
2021/06/05 05:03:30;;;;;;;7.93;2.00;;;;;;;26.70;48.99;101544.66;5030501;28;20041;-65
2021/06/05 05:06:00;;;;;;;6.45;1.80;;;;;;;27.00;48.03;101545.31;5030663;28;20047;-65
2021/06/05 05:08:28;;;;;;;7.20;1.70;;;;;;;27.05;47.45;101556.84;5031059;28;20493;-65
2021/06/05 05:10:55;;;;;;;11.80;2.88;;;;;;;27.12;47.03;101566.50;5031134;28;20041;-65
2021/06/05 05:13:24;;;;;;;7.47;1.88;;;;;;;27.30;46.79;101570.31;5030190;28;20055;-65
2021/06/05 05:15:52;;;;;;;4.15;2.03;;;;;;;27.49;45.93;101571.31;5030707;28;20041;-64
2021/06/05 05:18:21;;;;;;;8.35;1.50;;;;;;;27.60;45.84;101571.78;5013332;28;20124;-65
2021/06/05 05:20:48;;;;;;;4.82;1.35;;;;;;;27.69;44.94;101570.50;5030917;28;20545;-66
2021/06/05 05:23:16;;;;;;;5.93;1.55;;;;;;;27.83;45.02;101583.50;5013735;28;20580;-65
2021/06/05 05:25:45;;;;;;;6.97;2.25;;;;;;;28.05;44.45;101571.63;5006322;28;20041;-64
2021/06/05 05:28:14;;;;;;;7.07;1.80;;;;;;;28.17;43.94;101577.47;5009047;28;20074;-65
2021/06/05 05:30:45;;;;;;;7.07;2.10;;;;;;;28.39;43.64;101573.75;5009332;28;20034;-65
2021/06/05 05:33:12;;;;;;;4.10;1.90;;;;;;;28.59;42.72;101572.84;5016430;28;20576;-65
2021/06/05 05:35:40;;;;;;;8.23;1.75;;;;;;;28.90;42.62;101567.75;5030406;28;20497;-65
2021/06/05 05:38:08;;;;;;;6.00;1.67;;;;;;;29.23;42.38;101577.94;5010847;28;20050;-66
2021/06/05 05:40:38;;;;;;;6.78;1.90;;;;;;;29.52;41.87;101571.09;5010504;28;20115;-65
2021/06/05 05:43:05;;;;;;;8.63;2.35;;;;;;;29.62;41.15;101572.38;5009571;28;20133;-65
2021/06/05 05:45:32;;;;;;;8.32;2.15;;;;;;;29.77;40.63;101568.00;5004789;28;20056;-65
2021/06/05 05:48:01;;;;;;;8.95;1.85;;;;;;;29.94;40.51;101574.38;5008131;28;20142;-65
2021/06/05 05:50:30;;;;;;;6.60;1.30;;;;;;;30.19;40.19;101578.56;5024267;28;20033;-65
2021/06/05 05:52:58;;;;;;;6.18;1.88;;;;;;;30.32;40.34;101569.66;5027854;28;20106;-65
2021/06/05 05:55:26;;;;;;;7.75;1.40;;;;;;;30.21;39.97;101565.72;5029540;28;20045;-65
2021/06/05 05:57:52;;;;;;;6.53;1.75;;;;;;;30.19;39.63;101568.53;5030811;28;20069;-65
2021/06/05 06:00:24;;;;;;;6.03;2.00;;;;;;;30.26;39.35;101567.22;5030182;28;20041;-65
2021/06/05 06:02:51;;;;;;;7.97;1.48;;;;;;;30.23;38.79;101567.41;5029501;28;20040;-65
2021/06/05 06:05:19;;;;;;;5.15;1.50;;;;;;;30.18;38.69;101552.25;5017071;28;20042;-65
2021/06/05 06:07:45;;;;;;;5.43;1.88;;;;;;;30.09;38.57;101548.19;5032809;28;20429;-65
2021/06/05 06:10:17;;;;;;;8.13;1.80;;;;;;;30.23;38.47;101548.31;5018259;28;20462;-65
2021/06/05 06:12:44;;;;;;;7.35;1.95;;;;;;;30.23;38.33;101542.88;5022905;28;20040;-65
2021/06/05 06:15:14;;;;;;;8.32;1.77;;;;;;;30.51;38.23;101546.88;5029824;28;20692;-65
2021/06/05 06:17:41;;;;;;;9.32;1.90;;;;;;;30.69;38.17;101546.72;5029721;28;20120;-65
2021/06/05 06:20:10;;;;;;;5.68;1.80;;;;;;;30.96;37.57;101554.31;5029565;28;20140;-65
2021/06/05 06:22:37;;;;;;;5.35;1.48;;;;;;;30.72;37.90;101546.53;5018630;28;20037;-65
2021/06/05 06:25:05;;;;;;;6.55;1.83;;;;;;;30.69;37.82;101538.53;5027832;28;20044;-66
2021/06/05 06:27:35;;;;;;;6.50;1.67;;;;;;;30.84;37.68;101543.16;5025286;28;20048;-65
2021/06/05 06:30:02;;;;;;;4.43;1.50;;;;;;;30.95;37.14;101549.81;5027504;28;20666;-66
2021/06/05 06:32:29;;;;;;;6.28;1.65;;;;;;;30.77;37.40;101554.47;5023386;28;20065;-66
2021/06/05 06:34:56;;;;;;;5.55;1.73;;;;;;;30.88;37.51;101543.84;5027893;28;20055;-65
2021/06/05 06:37:23;;;;;;;9.85;2.08;;;;;;;30.74;37.34;101554.63;5021348;28;20045;-66
2021/06/05 06:39:50;;;;;;;7.78;1.55;;;;;;;30.91;37.19;101550.97;5029741;28;20115;-66
2021/06/05 06:42:17;;;;;;;5.95;1.65;;;;;;;30.78;36.70;101545.34;5029085;28;20049;-65
2021/06/05 06:44:45;;;;;;;8.35;2.20;;;;;;;30.57;36.78;101550.13;5026974;28;20520;-65
2021/06/05 06:47:12;;;;;;;8.57;2.22;;;;;;;30.81;36.85;101548.75;5008732;28;20037;-65
2021/06/05 06:49:39;;;;;;;5.45;1.92;;;;;;;30.89;37.26;101556.50;5028277;28;20045;-65
2021/06/05 06:52:07;;;;;;;6.82;1.67;;;;;;;30.96;37.19;101565.22;5029290;28;20460;-65
2021/06/05 06:54:33;;;;;;;4.93;1.38;;;;;;;31.07;37.32;101565.53;5036450;28;20128;-65
2021/06/05 06:57:01;;;;;;;4.53;1.75;;;;;;;30.91;37.58;101553.72;5025583;28;20042;-65
2021/06/05 06:59:28;;;;;;;7.18;2.15;;;;;;;31.07;37.28;101555.50;5025049;28;20041;-65
2021/06/05 07:01:57;;;;;;;9.35;1.80;;;;;;;31.33;37.24;101566.75;5020176;28;20087;-65
2021/06/05 07:04:24;;;;;;;8.20;1.83;;;;;;;31.34;37.27;101568.50;5029382;28;20044;-65
2021/06/05 07:06:51;;;;;;;5.85;1.80;;;;;;;31.34;36.74;101566.66;5035227;28;20148;-66
2021/06/05 07:09:18;;;;;;;9.68;1.77;;;;;;;31.37;36.51;101569.25;5022986;28;20038;-65
2021/06/05 07:11:45;;;;;;;8.50;1.58;;;;;;;31.32;36.57;101567.72;5033757;28;20055;-65
2021/06/05 07:14:12;;;;;;;8.45;1.52;;;;;;;31.15;36.82;101576.91;5011846;28;20125;-65
2021/06/05 07:16:41;;;;;;;10.70;1.90;;;;;;;31.11;36.68;101557.09;5022694;28;20113;-65
2021/06/05 07:19:11;;;;;;;6.15;1.50;;;;;;;31.11;36.95;101568.00;5027786;28;20049;-65
2021/06/05 07:21:38;;;;;;;5.95;1.67;;;;;;;31.06;36.95;101569.22;5022097;28;20116;-65
2021/06/05 07:24:06;;;;;;;6.13;1.25;;;;;;;30.84;36.82;101567.69;5030900;28;20140;-65
2021/06/05 07:26:35;;;;;;;5.70;1.60;;;;;;;30.85;36.70;101572.16;5032542;28;20048;-65
2021/06/05 07:29:04;;;;;;;5.40;1.40;;;;;;;31.10;36.38;101576.28;5030019;28;20053;-65
2021/06/05 07:31:34;;;;;;;4.60;1.65;;;;;;;31.09;36.18;101569.94;5030691;28;20045;-65
2021/06/05 07:34:02;;;;;;;7.43;2.10;;;;;;;30.99;36.66;101579.56;5022681;28;20037;-65
2021/06/05 07:36:38;;;;;;;5.63;1.50;;;;;;;31.19;36.28;101578.47;5032333;28;20128;-65
2021/06/05 07:39:07;;;;;;;5.43;1.30;;;;;;;31.31;35.46;101577.75;5031061;28;20199;-65
2021/06/05 07:41:34;;;;;;;9.57;1.85;;;;;;;31.27;35.66;101581.63;5031341;28;20113;-65
2021/06/05 07:44:01;;;;;;;5.10;1.65;;;;;;;31.34;35.50;101583.03;5030730;28;20073;-65
2021/06/05 07:46:28;;;;;;;7.95;1.98;;;;;;;31.11;34.97;101591.69;5030351;28;20042;-65
2021/06/05 07:48:55;;;;;;;7.47;1.85;;;;;;;31.16;35.96;101592.31;5031434;28;20043;-65
2021/06/05 07:51:23;;;;;;;5.40;1.52;;;;;;;31.38;35.07;101586.47;5031760;28;20412;-65
2021/06/05 07:53:51;;;;;;;6.93;1.90;;;;;;;31.41;34.86;101595.38;5026643;28;20466;-65
2021/06/05 07:56:19;;;;;;;4.78;1.42;;;;;;;31.36;34.54;101577.50;5031670;28;20334;-65
2021/06/05 07:58:46;;;;;;;6.38;1.85;;;;;;;31.24;34.71;101596.31;5024376;28;20057;-65
2021/06/05 08:01:13;;;;;;;4.80;1.95;;;;;;;31.30;35.08;101605.16;5025576;28;20056;-65
2021/06/05 08:03:40;;;;;;;5.28;1.77;;;;;;;31.37;35.37;101591.06;5025650;28;20053;-65
2021/06/05 08:06:07;;;;;;;8.07;2.47;;;;;;;31.44;34.38;101602.53;5026563;28;20038;-65
2021/06/05 08:08:35;;;;;;;8.50;1.95;;;;;;;31.64;34.77;101616.78;5030715;28;20049;-65
2021/06/05 08:11:03;;;;;;;7.85;2.13;;;;;;;31.76;34.66;101567.88;5030533;28;20120;-66
2021/06/05 08:13:30;;;;;;;4.43;1.38;;;;;;;31.69;34.49;101596.53;5028923;28;20051;-65
2021/06/05 08:15:57;;;;;;;7.00;1.55;;;;;;;31.71;34.72;101608.22;5031957;28;20051;-65
2021/06/05 08:18:24;;;;;;;8.13;1.83;;;;;;;31.80;34.18;101611.31;5031878;28;20047;-65
2021/06/05 08:20:55;;;;;;;8.45;1.52;;;;;;;31.96;33.81;101603.97;5032261;28;20048;-66
2021/06/05 08:23:23;;;;;;;5.03;1.67;;;;;;;31.85;34.22;101591.88;5032190;28;20041;-65
2021/06/05 08:25:50;;;;;;;5.38;1.52;;;;;;;31.96;34.24;101578.47;5029447;28;20096;-65
2021/06/05 08:28:22;;;;;;;4.75;1.35;;;;;;;31.86;34.33;101590.94;5022144;28;20061;-65
2021/06/05 08:30:51;;;;;;;6.53;1.38;;;;;;;31.64;34.35;101588.59;5024161;28;20041;-65
2021/06/05 08:33:19;;;;;;;6.57;1.58;;;;;;;31.38;34.69;101586.47;5032078;28;20124;-65
2021/06/05 08:35:46;;;;;;;4.70;2.10;;;;;;;31.41;35.23;101586.31;5012903;28;20125;-65
2021/06/05 08:38:17;;;;;;;4.43;1.80;;;;;;;31.31;35.30;101583.22;4992548;28;20042;-65
2021/06/05 08:40:48;;;;;;;9.73;1.83;;;;;;;31.40;35.25;101593.59;4992534;28;20038;-66
2021/06/05 08:43:23;;;;;;;7.15;1.63;;;;;;;31.40;35.36;101590.00;4992095;28;20043;-65
2021/06/05 08:45:52;;;;;;;9.60;2.10;;;;;;;31.48;35.69;101579.50;4999358;28;20125;-65
2021/06/05 08:48:21;;;;;;;5.22;1.85;;;;;;;31.55;35.61;101570.00;5011949;28;20132;-65
2021/06/05 08:50:48;;;;;;;8.82;1.88;;;;;;;31.40;35.20;101574.50;5011299;28;20393;-65
2021/06/05 08:53:19;;;;;;;10.57;2.67;;;;;;;31.31;35.46;101585.94;5011890;28;21230;-65
2021/06/05 08:55:52;;;;;;;8.55;1.73;;;;;;;31.38;35.66;101581.88;5011609;28;20132;-65
2021/06/05 08:58:35;;;;;;;6.78;1.33;;;;;;;31.49;35.39;101579.44;5011765;28;20044;-65
2021/06/05 09:01:07;;;;;;;5.28;1.80;;;;;;;31.55;35.23;101581.81;5011365;28;20402;-65
2021/06/05 09:03:36;;;;;;;6.50;1.38;;;;;;;31.60;35.61;101574.25;5021004;28;20025;-65
2021/06/05 09:06:08;;;;;;;7.75;1.90;;;;;;;31.73;35.18;101565.31;5029799;28;20057;-66
2021/06/05 09:08:35;;;;;;;4.40;1.50;;;;;;;31.69;34.60;101567.38;5017568;28;20044;-66
2021/06/05 09:11:05;;;;;;;5.78;1.58;;;;;;;31.66;34.41;101556.59;5030888;28;20484;-65
2021/06/05 09:13:34;;;;;;;9.90;1.70;;;;;;;31.80;33.96;101561.25;5031378;28;20100;-65
2021/06/05 09:16:24;;;;;;;5.22;1.40;;;;;;;31.58;32.42;101551.56;5031014;28;20124;-65
2021/06/05 09:18:54;;;;;;;7.80;1.88;;;;;;;31.34;32.24;101566.66;5027842;28;20056;-65
2021/06/05 09:21:28;;;;;;;5.97;1.48;;;;;;;31.21;31.78;101546.50;5029984;28;20740;-64
2021/06/05 09:24:11;;;;;;;8.73;1.83;;;;;;;31.25;32.68;101556.28;5028747;28;20039;-65
2021/06/05 09:26:41;;;;;;;5.60;1.50;;;;;;;31.45;33.22;101534.16;5029559;28;20091;-65
2021/06/05 09:29:15;;;;;;;9.95;1.83;;;;;;;31.49;33.04;101543.94;5029021;28;20279;-65
2021/06/05 09:31:58;;;;;;;7.72;1.90;;;;;;;31.41;32.26;101546.22;5025591;28;20410;-65
2021/06/05 09:34:32;;;;;;;8.32;1.40;;;;;;;31.16;31.80;101541.34;5021695;28;20041;-65
2021/06/05 09:37:01;;;;;;;7.25;1.90;;;;;;;30.97;32.14;101546.06;5030020;28;20567;-65
2021/06/05 09:39:43;;;;;;;7.43;1.95;;;;;;;31.11;32.57;101548.03;5032418;28;20041;-65
2021/06/05 09:42:13;;;;;;;7.28;1.73;;;;;;;31.08;32.65;101545.47;5027871;28;20124;-65
2021/06/05 09:44:45;;;;;;;7.75;2.30;;;;;;;31.13;33.06;101551.53;5030337;28;20046;-65
2021/06/05 09:47:27;;;;;;;6.88;1.63;;;;;;;31.24;33.77;101552.66;5029688;28;20041;-65
2021/06/05 09:49:59;;;;;;;5.70;2.13;;;;;;;31.12;34.14;101541.56;5027860;28;20038;-65
2021/06/05 09:52:34;;;;;;;8.13;1.80;;;;;;;30.88;34.70;101546.56;5023673;28;20061;-65
2021/06/05 09:55:26;;;;;;;9.15;1.60;;;;;;;31.08;34.77;101550.91;5009748;28;20096;-65
2021/06/05 09:57:55;;;;;;;11.40;2.22;;;;;;;30.82;34.98;101536.88;5007101;28;20042;-65
2021/06/05 10:00:29;;;;;;;8.07;2.10;;;;;;;30.84;34.81;101540.41;5019949;28;20041;-65
2021/06/05 10:03:13;;;;;;;;;;;;;;;30.60;35.10;101549.94;5015157;28;20141;-65
2021/06/05 10:05:42;;;;;;;9.25;1.75;;;;;;;30.45;35.36;101551.66;5016491;28;19928;-65
2021/06/05 10:08:23;;;;;;;5.30;2.10;;;;;;;30.25;35.50;101562.75;5029813;28;20456;-65
2021/06/05 10:10:58;;;;;;;7.22;1.77;;;;;;;30.13;35.62;101559.81;4998665;28;20042;-66
2021/06/05 10:13:28;;;;;;;7.68;1.65;;;;;;;30.23;35.68;101545.59;5011932;28;20041;-66
2021/06/05 10:16:02;;;;;;;4.20;1.80;;;;;;;30.25;35.68;101548.25;5016641;28;20037;-64
2021/06/05 10:18:34;;;;;;;9.55;2.60;;;;;;;30.38;35.91;101562.97;5007931;28;20050;-65
2021/06/05 10:21:07;;;;;;;4.20;1.52;;;;;;;30.24;35.72;101569.16;5008670;28;20188;-66
2021/06/05 10:23:38;;;;;;;8.35;1.83;;;;;;;30.01;35.83;101550.41;5011734;28;20099;-66
2021/06/05 10:26:08;;;;;;;10.05;1.73;;;;;;;29.80;36.25;101565.16;5026009;28;20138;-65
2021/06/05 10:28:43;;;;;;;5.03;1.45;;;;;;;29.66;36.48;101554.97;5013346;28;20037;-65
2021/06/05 10:31:16;;;;;;;5.22;1.85;;;;;;;29.67;36.41;101553.97;5022527;28;20045;-65
2021/06/05 10:33:46;;;;;;;9.57;2.15;;;;;;;29.87;36.06;101552.94;5020954;28;20038;-65
2021/06/05 10:36:19;;;;;;;6.47;1.98;;;;;;;29.91;36.31;101533.66;5027238;28;20534;-65
2021/06/05 10:38:49;;;;;;;5.43;1.80;;;;;;;29.76;36.08;101545.34;5029554;28;20049;-65
2021/06/05 10:41:21;;;;;;;4.78;1.73;;;;;;;29.82;36.21;101530.53;5016425;28;20050;-65
2021/06/05 10:43:49;;;;;;;5.07;1.67;;;;;;;29.85;36.03;101527.66;5010084;28;20121;-65
2021/06/05 10:46:29;;;;;;;3.90;1.60;;;;;;;30.07;35.18;101523.72;5019959;28;20048;-65
2021/06/05 10:49:08;;;;;;;3.55;1.40;;;;;;;30.32;33.29;101522.44;5029119;28;20589;-65
2021/06/05 10:51:39;;;;;;;5.80;1.38;;;;;;;30.40;32.64;101525.59;5027337;28;20048;-66
2021/06/05 10:54:10;;;;;;;7.55;2.10;;;;;;;30.47;32.43;101525.19;5024955;28;20048;-65
2021/06/05 10:56:41;;;;;;;7.68;1.88;;;;;;;30.65;31.99;101531.50;5007447;28;20095;-65
2021/06/05 10:59:32;;;;;;;8.43;1.90;;;;;;;30.74;31.37;101525.53;5003981;28;20068;-65
2021/06/05 11:02:01;;;;;;;7.03;1.60;;;;;;;30.88;31.32;101531.09;5015814;28;20557;-65
2021/06/05 11:04:45;;;;;;;4.38;1.63;;;;;;;31.00;31.06;101528.63;5015443;28;20091;-65
2021/06/05 11:07:36;;;;;;;5.72;1.70;;;;;;;30.99;31.40;101524.13;5026508;28;20472;-65
2021/06/05 11:10:08;;;;;;;4.38;1.70;;;;;;;31.15;31.18;101530.50;5027779;28;20116;-65
2021/06/05 11:12:52;;;;;;;7.05;2.42;;;;;;;31.33;30.67;101525.81;5023531;28;20528;-65
2021/06/05 11:15:59;;;;;;;7.93;1.60;;;;;;;31.51;30.70;101522.88;5019401;28;20404;-65
2021/06/05 11:18:38;;;;;;;7.85;1.98;;;;;;;31.54;30.47;101521.81;5004737;28;20042;-65
2021/06/05 11:21:39;;;;;;;6.30;1.60;;;;;;;31.60;29.94;101522.34;5017803;28;20056;-65
2021/06/05 11:24:20;;;;;;;6.72;1.50;;;;;;;31.68;29.57;101513.72;5009171;28;20042;-66
2021/06/05 11:26:49;;;;;;;5.97;1.65;;;;;;;31.88;29.29;101498.84;5014733;28;20070;-66
2021/06/05 11:29:53;;;;;;;6.65;1.73;;;;;;;31.80;28.62;101512.97;5018248;28;20129;-66
2021/06/05 11:32:48;;;;;;;6.60;1.40;;;;;;;32.10;28.36;101509.31;5015475;28;20555;-66
2021/06/05 11:35:41;;;;;;;7.03;1.80;;;;;;;32.32;28.38;101499.69;5016946;28;20060;-66
2021/06/05 11:38:11;;;;;;;9.20;1.70;;;;;;;32.41;28.50;101504.59;5016364;28;20092;-65
2021/06/05 11:40:55;;;;;;;5.13;1.48;;;;;;;32.55;28.77;101509.19;5016838;28;20378;-66